Time;durP1;ratioP1;P1;durP2;ratioP2;P2;SDS_P1;SDS_P2;PMS_P1;PMS_P2;Temp;Humidity;BMP_temperature;BMP_pressure;BME280_temperature;BME280_humidity;BME280_pressure;Samples;Min_cycle;Max_cycle;Signal;HPM_P1;HPM_P2
2024/04/02 00:00:04;;;;;;;9.32;4.60;;;;;;;14.62;67.35;99584.19;5093595;28;20162;-76
2024/04/02 00:03:13;;;;;;;8.07;2.47;;;;;;;14.44;67.63;99587.19;5081820;28;20047;-76
2024/04/02 00:06:18;;;;;;;11.13;1.40;;;;;;;14.35;67.07;99596.34;5093425;28;20059;-76
2024/04/02 00:09:23;;;;;;;8.35;1.65;;;;;;;14.25;68.13;99601.06;5093426;28;20051;-76
2024/04/02 00:12:27;;;;;;;9.10;1.23;;;;;;;14.14;68.79;99604.19;5093251;28;20158;-76
2024/04/02 00:15:32;;;;;;;3.88;1.02;;;;;;;14.16;68.69;99608.38;5093319;28;20067;-76
2024/04/02 00:18:37;;;;;;;6.03;1.48;;;;;;;14.26;68.98;99617.13;5093138;28;20197;-79
2024/04/02 00:21:41;;;;;;;5.18;0.90;;;;;;;14.25;68.68;99618.13;5093236;28;20055;-76
2024/04/02 00:24:46;;;;;;;4.38;1.00;;;;;;;14.37;68.34;99624.00;5093342;28;20044;-76
2024/04/02 00:27:53;;;;;;;6.63;1.20;;;;;;;14.45;67.52;99623.97;5093170;28;20517;-75
2024/04/02 00:31:02;;;;;;;3.17;0.95;;;;;;;14.48;66.98;99629.00;5080598;28;20600;-76
2024/04/02 00:34:06;;;;;;;9.00;1.45;;;;;;;14.48;66.99;99644.38;5094098;28;20043;-75
2024/04/02 00:37:11;;;;;;;7.57;1.00;;;;;;;14.50;66.78;99643.16;5096966;28;20051;-75
2024/04/02 00:40:16;;;;;;;9.07;1.58;;;;;;;14.48;66.18;99658.72;5096967;28;20074;-75
2024/04/02 00:43:21;;;;;;;5.28;0.98;;;;;;;14.53;65.18;99647.38;5084209;28;20480;-75
2024/04/02 00:46:25;;;;;;;6.63;1.67;;;;;;;14.62;64.12;99649.84;5084438;28;20078;-76
2024/04/02 00:49:31;;;;;;;9.52;1.58;;;;;;;14.69;62.63;99644.59;5096385;28;20059;-75
2024/04/02 00:52:36;;;;;;;8.35;1.48;;;;;;;15.00;59.70;99642.69;5096644;28;20051;-75
2024/04/02 00:55:45;;;;;;;7.20;1.48;;;;;;;15.14;59.67;99658.13;5096318;28;20075;-75
2024/04/02 00:58:50;;;;;;;8.70;2.10;;;;;;;15.23;59.55;99653.50;5096633;28;20051;-75
2024/04/02 01:01:54;;;;;;;7.53;1.10;;;;;;;15.29;58.65;99664.41;5084140;28;20047;-75
2024/04/02 01:04:59;;;;;;;5.28;1.00;;;;;;;15.26;58.89;99672.88;5096517;28;20071;-75
2024/04/02 01:08:04;;;;;;;11.90;1.52;;;;;;;15.24;59.34;99674.09;5096495;28;20055;-76
2024/04/02 01:11:08;;;;;;;7.20;1.52;;;;;;;15.16;59.39;99675.00;5083807;28;20059;-77
2024/04/02 01:14:12;;;;;;;6.18;1.42;;;;;;;15.21;59.23;99685.28;5083716;28;20063;-75
2024/04/02 01:17:17;;;;;;;8.13;1.40;;;;;;;15.26;59.32;99674.75;5096078;28;20109;-75
2024/04/02 01:20:21;;;;;;;7.97;1.02;;;;;;;15.21;59.53;99682.59;5083438;28;20371;-78
2024/04/02 01:23:26;;;;;;;8.75;1.50;;;;;;;15.10;59.30;99688.41;5096235;28;20055;-75
2024/04/02 01:26:30;;;;;;;5.40;1.00;;;;;;;15.07;59.54;99689.59;5096017;28;20469;-76
2024/04/02 01:29:34;;;;;;;6.47;1.13;;;;;;;14.98;60.35;99699.63;5083609;28;20047;-75
2024/04/02 01:32:38;;;;;;;6.70;1.27;;;;;;;14.92;60.34;99697.63;5096242;28;20489;-76
2024/04/02 01:35:43;;;;;;;7.72;2.22;;;;;;;14.86;61.04;99692.13;5096246;28;20051;-77
2024/04/02 01:38:47;;;;;;;11.70;5.63;;;;;;;14.75;61.32;99690.66;5095769;28;20493;-74
2024/04/02 01:41:51;;;;;;;8.75;2.72;;;;;;;14.73;61.51;99692.69;5095987;28;20055;-76
2024/04/02 01:44:57;;;;;;;8.48;1.65;;;;;;;14.82;61.63;99688.91;5095437;28;20047;-75
2024/04/02 01:48:03;;;;;;;7.80;1.13;;;;;;;14.81;61.63;99691.81;5095643;28;20051;-75
2024/04/02 01:51:07;;;;;;;7.18;1.50;;;;;;;14.68;61.87;99686.97;5083248;28;20058;-77
2024/04/02 01:54:12;;;;;;;3.72;0.85;;;;;;;14.61;62.32;99690.56;5083010;28;20047;-77
2024/04/02 01:57:16;;;;;;;4.03;0.80;;;;;;;14.62;62.54;99690.38;5094895;28;20059;-75
2024/04/02 02:00:20;;;;;;;6.13;1.38;;;;;;;14.54;62.85;99695.78;5095058;28;20048;-75
2024/04/02 02:03:24;;;;;;;5.57;1.60;;;;;;;14.57;62.30;99697.31;5095105;28;20039;-75
2024/04/02 02:06:28;;;;;;;8.73;1.38;;;;;;;14.63;62.65;99694.75;5083034;28;20055;-75
2024/04/02 02:09:33;;;;;;;9.88;1.52;;;;;;;14.53;62.88;99685.19;5082058;28;20407;-75
2024/04/02 02:12:38;;;;;;;6.60;1.45;;;;;;;14.43;62.80;99687.25;5095207;28;20059;-74
2024/04/02 02:18:08;;;;;;;6.78;1.30;;;;;;;14.33;63.27;99700.97;5095074;28;20032;-76
2024/04/02 02:21:13;;;;;;;5.18;1.20;;;;;;;14.35;63.18;99709.72;5082423;28;20043;-76
2024/04/02 02:24:17;;;;;;;8.15;1.45;;;;;;;14.26;64.11;99710.75;5094930;28;20051;-75
2024/04/02 02:27:21;;;;;;;6.47;1.48;;;;;;;14.16;64.37;99712.81;5082384;28;20106;-75
2024/04/02 02:30:26;;;;;;;5.90;1.05;;;;;;;14.06;64.50;99710.31;5094998;28;20055;-76
2024/04/02 02:33:31;;;;;;;5.03;0.90;;;;;;;14.05;65.11;99715.84;5095072;28;20387;-75
2024/04/02 02:36:35;;;;;;;6.25;1.20;;;;;;;14.07;64.74;99720.06;5070656;28;20047;-77
2024/04/02 02:39:40;;;;;;;8.65;1.58;;;;;;;14.00;65.09;99715.56;5082450;28;20066;-78
2024/04/02 02:42:45;;;;;;;5.22;0.95;;;;;;;14.01;65.22;99722.63;5094908;28;20058;-77
2024/04/02 02:45:50;;;;;;;7.05;1.17;;;;;;;14.12;65.34;99730.38;5094774;28;20055;-77
2024/04/02 02:48:55;;;;;;;4.57;0.88;;;;;;;14.07;65.34;99728.16;5094291;28;20067;-77
2024/04/02 02:51:59;;;;;;;3.70;0.73;;;;;;;14.08;65.44;99729.00;5094182;28;20055;-79
2024/04/02 02:55:04;;;;;;;8.77;1.10;;;;;;;14.03;65.32;99736.78;5094245;28;20051;-76
2024/04/02 02:58:08;;;;;;;5.75;1.00;;;;;;;14.00;65.81;99737.97;5093620;28;20050;-75
2024/04/02 03:01:12;;;;;;;8.65;1.60;;;;;;;13.96;65.94;99736.63;5094319;28;20051;-76
2024/04/02 03:04:17;;;;;;;3.70;1.15;;;;;;;14.02;66.01;99740.50;5094271;28;20051;-77
2024/04/02 03:07:21;;;;;;;2.67;0.73;;;;;;;13.97;66.43;99749.13;5081724;28;20051;-75
2024/04/02 03:10:25;;;;;;;5.78;0.80;;;;;;;13.93;66.14;99755.84;5093289;28;20059;-75
2024/04/02 03:13:31;;;;;;;3.22;0.80;;;;;;;13.90;66.48;99755.38;5094011;28;20051;-74
2024/04/02 03:16:36;;;;;;;8.07;1.67;;;;;;;13.76;66.51;99759.56;5094128;28;20390;-75
2024/04/02 03:19:42;;;;;;;3.55;0.70;;;;;;;13.67;66.92;99766.84;5094138;28;20063;-76
2024/04/02 03:22:47;;;;;;;8.88;1.50;;;;;;;13.75;67.13;99773.25;5081248;28;20395;-75
2024/04/02 03:25:56;;;;;;;6.65;1.15;;;;;;;13.83;67.34;99771.38;5093934;28;20058;-75
2024/04/02 03:29:00;;;;;;;6.78;1.25;;;;;;;13.73;67.74;99777.97;5093702;28;20390;-76
2024/04/02 03:32:04;;;;;;;;;;;;;;;13.74;68.11;99777.78;5094074;28;20047;-74
2024/04/02 03:35:08;;;;;;;7.95;1.63;;;;;;;13.80;67.44;99781.69;5094030;28;19920;-78
2024/04/02 03:38:12;;;;;;;8.90;0.98;;;;;;;13.74;67.26;99779.63;5093696;28;20394;-77
2024/04/02 03:41:17;;;;;;;5.07;1.10;;;;;;;13.64;67.46;99777.13;5093908;28;20051;-76
2024/04/02 03:44:21;;;;;;;7.60;0.90;;;;;;;13.57;67.57;99776.94;5093782;28;20047;-76
2024/04/02 03:47:26;;;;;;;6.65;1.30;;;;;;;13.48;68.67;99782.50;5093632;28;20106;-77
2024/04/02 03:50:30;;;;;;;4.63;1.35;;;;;;;13.50;68.01;99794.81;5093509;28;20051;-77
2024/04/02 03:53:35;;;;;;;7.22;1.10;;;;;;;13.40;68.44;99791.44;5093599;28;20051;-77
2024/04/02 03:56:40;;;;;;;8.93;1.17;;;;;;;13.31;69.42;99796.94;5093294;28;20055;-77
2024/04/02 03:59:44;;;;;;;6.15;1.17;;;;;;;13.44;68.52;99792.78;5081388;28;20043;-77
2024/04/02 04:02:48;;;;;;;7.75;1.40;;;;;;;13.41;69.02;99792.25;5093561;28;20059;-79
2024/04/02 04:06:11;;;;;;;6.35;1.95;;;;;;;13.36;68.99;99797.28;5093479;28;20055;-76
2024/04/02 04:09:16;;;;;;;8.10;1.23;;;;;;;13.36;68.58;99798.16;5096441;28;20482;-75
2024/04/02 04:12:21;;;;;;;11.43;1.67;;;;;;;13.39;68.10;99807.75;5097505;28;20051;-75
2024/04/02 04:15:25;;;;;;;6.18;1.00;;;;;;;13.38;67.84;99800.69;5097562;28;20055;-75
2024/04/02 04:18:30;;;;;;;4.93;0.98;;;;;;;13.35;67.48;99801.88;5097358;28;20395;-77
2024/04/02 04:21:34;;;;;;;6.22;0.88;;;;;;;13.41;67.06;99800.34;5097490;28;20047;-76
2024/04/02 04:24:39;;;;;;;9.27;0.95;;;;;;;13.58;65.17;99810.13;5097232;28;20498;-77
2024/04/02 04:27:46;;;;;;;7.68;0.85;;;;;;;13.66;64.13;99813.69;5097162;28;20051;-81
2024/04/02 04:30:59;;;;;;;6.75;1.00;;;;;;;13.73;63.82;99821.13;5096682;28;20059;-76
2024/04/02 04:34:03;;;;;;;9.02;1.42;;;;;;;13.78;63.80;99824.13;5096952;28;20047;-76
2024/04/02 04:37:08;;;;;;;4.95;0.80;;;;;;;13.75;63.92;99824.50;5096884;28;20067;-76
2024/04/02 04:40:12;;;;;;;5.43;1.30;;;;;;;13.64;63.86;99831.06;5096864;28;20047;-76
2024/04/02 04:43:18;;;;;;;4.80;0.80;;;;;;;13.66;63.70;99835.28;5097014;28;20058;-78
2024/04/02 04:46:23;;;;;;;5.93;0.82;;;;;;;13.66;63.72;99837.97;5096839;28;20392;-76
2024/04/02 04:49:28;;;;;;;4.28;0.75;;;;;;;13.68;63.79;99852.13;5096704;28;20526;-77
2024/04/02 04:52:33;;;;;;;7.32;1.30;;;;;;;13.79;64.19;99858.22;5096972;28;20513;-76
2024/04/02 04:55:37;;;;;;;9.07;1.58;;;;;;;13.64;65.05;99866.13;5096537;28;20059;-79
2024/04/02 04:58:42;;;;;;;3.00;1.00;;;;;;;13.37;66.18;99869.94;5096656;28;20067;-76
2024/04/02 05:01:47;;;;;;;3.90;1.15;;;;;;;13.34;66.67;99874.78;5096618;28;20059;-75
2024/04/02 05:04:52;;;;;;;5.63;1.25;;;;;;;13.20;68.08;99880.81;5096505;28;20051;-79
2024/04/02 05:08:17;;;;;;;4.55;1.00;;;;;;;13.25;67.58;99883.88;5096596;28;20355;-75
2024/04/02 05:11:22;;;;;;;4.57;1.55;;;;;;;13.37;67.70;99883.41;5096107;28;20490;-76
2024/04/02 05:14:27;;;;;;;4.07;1.20;;;;;;;13.41;68.03;99887.47;5096409;28;20055;-76
2024/04/02 05:17:31;;;;;;;4.20;1.50;;;;;;;13.49;68.22;99889.34;5083547;28;20055;-79
2024/04/02 05:20:36;;;;;;;4.90;1.20;;;;;;;13.68;67.64;99897.97;5082940;28;20055;-75
2024/04/02 05:23:40;;;;;;;7.95;1.63;;;;;;;13.84;67.04;99899.88;5096275;28;20055;-77
2024/04/02 05:26:47;;;;;;;4.15;1.55;;;;;;;13.76;66.77;99904.38;5096034;28;20381;-80
2024/04/02 05:29:52;;;;;;;6.47;2.22;;;;;;;13.79;67.24;99910.31;5095972;28;20058;-77
2024/04/02 05:32:56;;;;;;;6.40;1.63;;;;;;;14.42;65.43;99923.22;5096259;28;20047;-81
2024/04/02 05:36:01;;;;;;;6.03;1.40;;;;;;;14.42;64.82;99921.34;5071783;28;20051;-76
2024/04/02 05:39:05;;;;;;;4.85;1.88;;;;;;;14.50;64.33;99918.63;5095967;28;20043;-75
2024/04/02 05:42:11;;;;;;;5.53;1.83;;;;;;;14.16;65.36;99923.34;5095592;28;20051;-75
2024/04/02 05:45:15;;;;;;;4.18;1.35;;;;;;;13.83;65.89;99925.16;5095389;28;20391;-75
2024/04/02 05:48:20;;;;;;;3.58;1.67;;;;;;;13.79;66.94;99926.50;5095656;28;20371;-78
2024/04/02 05:51:24;;;;;;;6.57;2.17;;;;;;;13.83;67.90;99933.25;5083030;28;20055;-77
2024/04/02 05:54:29;;;;;;;5.35;1.83;;;;;;;14.13;66.38;99937.16;5083037;28;20395;-79
2024/04/02 05:57:33;;;;;;;4.28;1.70;;;;;;;14.45;66.07;99933.66;5094772;28;20051;-80
2024/04/02 06:00:38;;;;;;;3.30;1.67;;;;;;;14.73;66.14;99943.94;5095392;28;20055;-80
2024/04/02 06:03:43;;;;;;;4.63;1.50;;;;;;;15.53;63.92;99950.13;5082436;28;20062;-79
2024/04/02 06:06:47;;;;;;;10.43;2.80;;;;;;;15.50;62.50;99945.09;5094994;28;20047;-80
2024/04/02 06:09:51;;;;;;;5.05;1.20;;;;;;;15.63;60.02;99957.03;5094994;28;20051;-81
2024/04/02 06:12:56;;;;;;;5.90;1.08;;;;;;;15.74;59.20;99944.13;5095269;28;20493;-78
2024/04/02 06:16:10;;;;;;;5.05;0.98;;;;;;;15.98;58.34;99944.81;5095230;28;20106;-79
2024/04/02 06:19:14;;;;;;;;;;;;;;;16.02;57.92;99946.13;5096198;28;20051;-80
2024/04/02 06:22:26;;;;;;;6.55;1.40;;;;;;;16.33;57.58;99948.78;5082720;28;19920;-80
2024/04/02 06:25:31;;;;;;;6.40;0.98;;;;;;;17.03;56.02;99952.09;5095062;28;20061;-78
2024/04/02 06:28:35;;;;;;;4.32;1.50;;;;;;;17.23;55.19;99960.50;5082122;28;20043;-79
2024/04/02 06:31:40;;;;;;;4.63;0.75;;;;;;;17.69;53.02;99955.72;5093829;28;20051;-80
2024/04/02 06:34:45;;;;;;;4.28;0.93;;;;;;;17.85;52.59;99969.09;5082096;28;20063;-79
2024/04/02 06:37:49;;;;;;;7.30;1.02;;;;;;;18.00;51.96;99973.44;5082364;28;20394;-78
2024/04/02 06:40:54;;;;;;;5.38;0.85;;;;;;;17.94;52.13;99970.66;5082308;28;20494;-78
2024/04/02 06:44:00;;;;;;;4.35;1.10;;;;;;;17.91;51.92;99974.59;5094660;28;20047;-79
2024/04/02 06:47:04;;;;;;;9.63;1.10;;;;;;;18.16;51.29;99980.53;5094721;28;20494;-78
2024/04/02 06:50:09;;;;;;;4.60;1.15;;;;;;;18.11;50.66;99978.38;5094307;28;20371;-78
2024/04/02 06:53:13;;;;;;;7.22;0.98;;;;;;;17.98;51.06;99975.50;5093990;28;20091;-78
2024/04/02 06:56:18;;;;;;;5.07;1.38;;;;;;;18.07;50.95;99976.25;5094035;28;20051;-78
2024/04/02 06:59:23;;;;;;;5.35;1.45;;;;;;;18.22;50.13;99976.19;5094433;28;20043;-78
2024/04/02 07:02:27;;;;;;;6.57;1.00;;;;;;;18.26;48.96;99974.75;5094332;28;20047;-79
2024/04/02 07:05:31;;;;;;;3.38;1.23;;;;;;;18.20;49.22;99987.25;5081883;28;20039;-78
2024/04/02 07:08:36;;;;;;;6.40;0.90;;;;;;;18.22;49.00;99979.72;5081453;28;20051;-78
2024/04/02 07:11:40;;;;;;;6.18;1.15;;;;;;;18.68;47.51;99988.38;5093546;28;20055;-80
2024/04/02 07:14:45;;;;;;;3.53;1.10;;;;;;;18.94;47.00;99990.47;5071538;28;20055;-80
2024/04/02 07:17:50;;;;;;;5.07;1.25;;;;;;;19.45;45.36;99994.66;5091978;28;20055;-81
2024/04/02 07:21:03;;;;;;;5.70;1.30;;;;;;;20.24;43.04;100012.22;5092702;28;20047;-79
2024/04/02 07:24:09;;;;;;;6.32;1.40;;;;;;;20.60;41.49;100020.91;5087418;28;20063;-81
2024/04/02 07:27:14;;;;;;;6.88;1.70;;;;;;;21.63;42.05;100008.47;5073002;28;20063;-74
2024/04/02 07:30:19;;;;;;;3.50;1.02;;;;;;;21.95;39.40;100021.22;5071809;28;20106;-74
2024/04/02 07:33:23;;;;;;;6.50;1.48;;;;;;;23.13;37.42;100020.53;5072983;28;20498;-74
2024/04/02 07:36:28;;;;;;;5.93;1.60;;;;;;;24.02;37.17;100022.78;5070547;28;20048;-78
2024/04/02 07:39:32;;;;;;;5.35;1.17;;;;;;;25.14;35.76;100031.97;5081324;28;20398;-75
2024/04/02 07:42:37;;;;;;;4.07;1.08;;;;;;;25.44;34.71;100025.53;5089933;28;20048;-74
2024/04/02 07:45:41;;;;;;;4.68;1.23;;;;;;;26.82;33.24;100040.09;5078507;28;20047;-75
2024/04/02 07:48:46;;;;;;;4.85;1.35;;;;;;;28.67;30.62;100041.22;5091164;28;20051;-78
2024/04/02 07:51:52;;;;;;;10.88;4.90;;;;;;;29.96;29.35;100040.91;5076958;28;20078;-77
2024/04/02 07:54:57;;;;;;;4.28;1.45;;;;;;;31.20;27.19;100049.09;5087692;28;20048;-78
2024/04/02 07:58:02;;;;;;;6.25;1.67;;;;;;;32.32;26.71;100056.16;5092723;28;20059;-77
2024/04/02 08:01:07;;;;;;;5.82;1.20;;;;;;;34.43;24.41;100065.56;5092491;28;20051;-76
2024/04/02 08:04:12;;;;;;;3.80;1.35;;;;;;;35.40;23.84;100071.44;5092546;28;20043;-75
2024/04/02 08:07:17;;;;;;;4.28;1.08;;;;;;;36.69;21.47;100073.19;5080249;28;20809;-77
2024/04/02 08:10:22;;;;;;;4.43;1.00;;;;;;;35.97;21.08;100072.94;5092457;28;20513;-79
2024/04/02 08:13:27;;;;;;;3.50;0.75;;;;;;;37.19;20.37;100066.41;5092641;28;20406;-77
2024/04/02 08:16:32;;;;;;;5.68;0.95;;;;;;;37.15;19.41;100079.41;5092224;28;20047;-77
2024/04/02 08:19:36;;;;;;;4.82;0.93;;;;;;;37.48;20.10;100078.00;5080031;28;20517;-77
2024/04/02 08:22:41;;;;;;;3.95;0.73;;;;;;;38.97;17.77;100067.63;5092500;28;20466;-78
2024/04/02 08:25:46;;;;;;;3.67;1.10;;;;;;;38.59;18.61;100072.13;5092517;28;20047;-77
2024/04/02 08:28:50;;;;;;;1.98;0.73;;;;;;;39.29;18.33;100071.94;5092634;28;20047;-78
2024/04/02 08:31:54;;;;;;;2.75;0.80;;;;;;;39.81;18.97;100089.56;5079976;28;20341;-78
2024/04/02 08:34:59;;;;;;;2.40;0.68;;;;;;;38.94;19.68;100079.50;5079770;28;20043;-85
2024/04/02 08:38:04;;;;;;;3.50;0.82;;;;;;;39.02;18.56;100080.66;5093286;28;20047;-80
2024/04/02 08:41:11;;;;;;;2.80;0.85;;;;;;;39.52;17.96;100076.22;5092239;28;20509;-80
2024/04/02 08:44:17;;;;;;;2.50;0.80;;;;;;;39.52;17.71;100075.38;5092037;28;20407;-79
2024/04/02 08:47:21;;;;;;;2.40;0.85;;;;;;;39.00;16.49;100083.81;5080185;28;20051;-80
2024/04/02 08:50:26;;;;;;;1.85;0.50;;;;;;;39.64;17.09;100078.34;5092183;28;20801;-80
2024/04/02 08:53:34;;;;;;;3.72;0.80;;;;;;;38.99;18.09;100090.56;5079820;28;20043;-79
2024/04/02 08:56:41;;;;;;;5.68;1.00;;;;;;;38.92;18.39;100095.03;5095511;28;20055;-82
2024/04/02 08:59:49;;;;;;;2.55;1.05;;;;;;;39.26;18.98;100095.06;5083579;28;20067;-82
2024/04/02 09:02:55;;;;;;;2.42;0.70;;;;;;;39.35;16.85;100101.53;5095848;28;20066;-78
2024/04/02 09:06:02;;;;;;;4.82;1.40;;;;;;;38.33;20.23;100104.91;5095758;28;20051;-84
2024/04/02 09:09:19;;;;;;;4.80;1.40;;;;;;;36.68;21.86;100103.13;5095615;28;20055;-82
2024/04/02 09:12:24;;;;;;;5.05;1.20;;;;;;;34.52;23.95;100111.16;5095407;28;20403;-81
2024/04/02 09:15:30;;;;;;;5.40;2.10;;;;;;;32.01;25.90;100110.97;5095196;28;20356;-80
2024/04/02 09:18:42;;;;;;;5.90;1.63;;;;;;;30.58;28.25;100115.75;5095195;28;20043;-81
2024/04/02 09:21:47;;;;;;;5.50;1.35;;;;;;;29.03;30.60;100111.50;5095957;28;20070;-80
2024/04/02 09:24:52;;;;;;;5.50;1.42;;;;;;;26.69;36.95;100101.78;5095469;28;20055;-79
2024/04/02 09:27:56;;;;;;;4.78;1.48;;;;;;;26.36;35.51;100105.25;5095227;28;20394;-80
2024/04/02 09:31:00;;;;;;;6.22;2.25;;;;;;;25.80;38.96;100110.56;5095143;28;20114;-80
2024/04/02 09:34:09;;;;;;;6.38;1.95;;;;;;;25.74;35.81;100104.09;5081114;28;20048;-80
2024/04/02 09:37:21;;;;;;;6.22;1.80;;;;;;;25.70;34.02;100100.13;5062396;28;20495;-80
2024/04/02 09:40:29;;;;;;;5.10;1.42;;;;;;;25.30;32.54;100112.88;5074514;28;20048;-79
2024/04/02 09:43:34;;;;;;;4.47;1.17;;;;;;;25.13;34.74;100107.19;5080242;28;20043;-76
2024/04/02 09:46:40;;;;;;;21.35;3.10;;;;;;;24.97;33.45;100109.78;5094990;28;20055;-76
2024/04/02 09:49:45;;;;;;;6.72;1.27;;;;;;;25.03;32.86;100112.47;5094118;28;20403;-79
2024/04/02 09:52:52;;;;;;;2.30;0.85;;;;;;;24.89;32.25;100094.47;5094452;28;20058;-78
2024/04/02 09:55:57;;;;;;;4.40;0.90;;;;;;;25.07;30.82;100102.66;5094343;28;20051;-79
2024/04/02 09:59:03;;;;;;;3.22;0.80;;;;;;;24.96;33.31;100103.44;5094244;28;20055;-80
2024/04/02 10:02:15;;;;;;;5.40;1.20;;;;;;;24.47;33.59;100101.78;5094425;28;20058;-79
2024/04/02 10:05:21;;;;;;;3.33;0.80;;;;;;;24.18;31.64;100104.47;5094564;28;20083;-79
2024/04/02 10:08:26;;;;;;;5.45;1.10;;;;;;;24.33;31.30;100099.44;5093647;28;20043;-79
2024/04/02 10:11:41;;;;;;;4.63;0.93;;;;;;;24.12;31.53;100099.94;5094375;28;20055;-79
2024/04/02 10:14:48;;;;;;;3.75;0.70;;;;;;;24.45;30.66;100097.59;5093536;28;20044;-78
2024/04/02 10:17:58;;;;;;;5.53;1.73;;;;;;;24.34;29.09;100106.63;5094408;28;20063;-78
2024/04/02 10:21:04;;;;;;;3.03;0.77;;;;;;;24.07;28.85;100099.72;5093946;28;20059;-77
2024/04/02 10:24:11;;;;;;;3.03;0.80;;;;;;;24.01;28.93;100106.13;5093434;28;20055;-76
2024/04/02 10:27:16;;;;;;;3.65;0.85;;;;;;;24.07;29.83;100097.00;5094163;28;20098;-75
2024/04/02 10:30:22;;;;;;;4.47;0.82;;;;;;;23.90;30.06;100105.81;5093507;28;20047;-79
2024/04/02 10:33:28;;;;;;;5.38;0.75;;;;;;;23.81;29.64;100106.31;5092096;28;20063;-79
2024/04/02 10:36:34;;;;;;;4.72;1.48;;;;;;;24.07;29.56;100106.09;5093913;28;20051;-80
2024/04/02 10:39:39;;;;;;;3.80;0.88;;;;;;;23.84;29.22;100101.25;5093256;28;20067;-80
2024/04/02 10:42:45;;;;;;;2.97;0.75;;;;;;;23.74;29.63;100102.81;5080994;28;20076;-79
2024/04/02 10:45:51;;;;;;;4.68;1.10;;;;;;;23.78;29.92;100085.69;5091090;28;20055;-80
2024/04/02 10:49:00;;;;;;;2.78;0.70;;;;;;;23.61;30.58;100092.81;5072655;28;20052;-78
2024/04/02 10:52:05;;;;;;;3.17;0.70;;;;;;;23.53;30.24;100101.31;5072951;28;20118;-80
2024/04/02 10:55:11;;;;;;;4.80;1.08;;;;;;;23.41;31.06;100094.06;5071846;28;20043;-79
2024/04/02 10:58:15;;;;;;;4.30;1.05;;;;;;;23.44;31.10;100099.94;5071844;28;20055;-79
2024/04/02 11:01:21;;;;;;;3.58;0.80;;;;;;;23.32;30.64;100101.69;5072668;28;20047;-78
2024/04/02 11:04:25;;;;;;;4.65;1.30;;;;;;;23.28;31.15;100095.00;5071726;28;20064;-75
2024/04/02 11:07:30;;;;;;;3.67;1.00;;;;;;;23.16;31.45;100094.00;5060572;28;20039;-74
2024/04/02 11:10:35;;;;;;;3.97;0.98;;;;;;;23.05;31.87;100089.25;5072729;28;20068;-77
2024/04/02 11:13:40;;;;;;;6.20;0.80;;;;;;;23.11;32.84;100088.34;5077803;28;20067;-75
2024/04/02 11:16:45;;;;;;;5.65;1.35;;;;;;;23.04;31.63;100091.16;5093164;28;20055;-77
2024/04/02 11:19:50;;;;;;;3.72;0.85;;;;;;;22.96;31.46;100088.69;5079859;28;20047;-78
2024/04/02 11:26:21;;;;;;;4.43;1.38;;;;;;;22.88;31.02;100099.06;5093024;28;20055;-77
2024/04/02 11:29:26;;;;;;;4.38;0.75;;;;;;;22.96;31.88;100099.63;5092327;28;20066;-77
2024/04/02 11:32:31;;;;;;;3.05;0.70;;;;;;;22.97;32.36;100093.09;5092781;28;20059;-77
2024/04/02 11:35:36;;;;;;;5.85;1.90;;;;;;;22.94;31.94;100096.28;5092948;28;20518;-76
2024/04/02 11:38:40;;;;;;;4.00;0.90;;;;;;;23.01;31.38;100094.31;5092210;28;20048;-78
2024/04/02 11:41:45;;;;;;;4.20;1.00;;;;;;;23.01;32.17;100099.00;5080355;28;20474;-75
2024/04/02 11:44:51;;;;;;;5.25;1.50;;;;;;;23.06;32.30;100099.16;5071219;28;20052;-75
2024/04/02 11:47:56;;;;;;;4.85;1.20;;;;;;;22.90;32.04;100097.78;5058825;28;20052;-77
2024/04/02 11:51:02;;;;;;;4.85;1.27;;;;;;;23.00;32.54;100106.34;5070763;28;20051;-76
2024/04/02 11:54:07;;;;;;;5.55;0.90;;;;;;;22.61;32.03;100099.19;5073160;28;20052;-75
2024/04/02 12:00:35;;;;;;;4.18;0.98;;;;;;;23.02;32.56;100101.50;5060619;28;20044;-76
2024/04/02 12:03:39;;;;;;;3.92;1.20;;;;;;;23.16;32.86;100100.34;5073112;28;20067;-75
2024/04/02 12:06:44;;;;;;;5.40;1.70;;;;;;;23.17;31.51;100101.19;5073017;28;20047;-75
2024/04/02 12:09:54;;;;;;;4.15;1.15;;;;;;;23.14;31.74;100090.66;5073126;28;20494;-74
2024/04/02 12:12:59;;;;;;;3.10;0.82;;;;;;;22.99;32.47;100090.97;5073004;28;20059;-74
2024/04/02 12:16:04;;;;;;;6.45;1.00;;;;;;;23.06;33.39;100093.69;5073371;28;20051;-77
2024/04/02 12:19:08;;;;;;;5.20;1.20;;;;;;;23.06;33.49;100099.16;5073046;28;20052;-77
2024/04/02 12:22:12;;;;;;;3.25;0.95;;;;;;;23.10;33.43;100100.41;5071975;28;20059;-75
2024/04/02 12:25:17;;;;;;;4.30;1.40;;;;;;;23.20;32.08;100103.47;5073019;28;20059;-76
2024/04/02 12:28:22;;;;;;;6.40;1.38;;;;;;;23.29;32.00;100099.41;5073000;28;20506;-76
2024/04/02 12:31:27;;;;;;;7.38;1.60;;;;;;;23.27;31.62;100098.78;5075894;28;20051;-76
2024/04/02 12:34:32;;;;;;;5.22;1.13;;;;;;;23.20;31.76;100104.31;5074050;28;20477;-78
2024/04/02 12:37:36;;;;;;;5.75;1.27;;;;;;;23.25;31.83;100100.91;5075906;28;20501;-78
2024/04/02 12:40:40;;;;;;;3.85;1.20;;;;;;;23.20;32.07;100089.78;5075630;28;20051;-79
2024/04/02 12:43:45;;;;;;;5.65;1.10;;;;;;;23.15;32.05;100082.25;5075914;28;20048;-78
2024/04/02 12:46:50;;;;;;;3.97;1.10;;;;;;;23.14;32.33;100083.28;5076010;28;20391;-79
2024/04/02 12:49:55;;;;;;;4.82;1.10;;;;;;;23.11;32.37;100091.09;5075642;28;20052;-80
2024/04/02 12:53:00;;;;;;;22.38;12.25;;;;;;;23.22;31.57;100084.91;5082299;28;20067;-79
2024/04/02 12:56:10;;;;;;;7.55;4.10;;;;;;;23.13;31.42;100078.84;5094700;28;20052;-78
2024/04/02 12:59:14;;;;;;;4.57;1.52;;;;;;;22.76;31.70;100071.56;5096020;28;20051;-80
2024/04/02 13:02:19;;;;;;;6.63;0.85;;;;;;;23.15;32.18;100075.91;5094673;28;20043;-79
2024/04/02 13:05:23;;;;;;;5.47;1.20;;;;;;;23.03;31.95;100070.34;5095866;28;20110;-79
2024/04/02 13:08:28;;;;;;;4.53;1.13;;;;;;;23.12;32.24;100068.13;5083318;28;20402;-78
2024/04/02 13:11:32;;;;;;;4.28;0.95;;;;;;;23.23;31.87;100070.16;5094959;28;20568;-79
2024/04/02 13:14:37;;;;;;;4.88;1.48;;;;;;;23.27;31.05;100072.25;5095922;28;20402;-79
2024/04/02 13:17:43;;;;;;;2.92;0.75;;;;;;;23.26;31.24;100069.69;5095749;28;20055;-80
2024/04/02 13:20:52;;;;;;;3.83;0.80;;;;;;;23.48;31.11;100078.41;5082810;28;20367;-77
2024/04/02 13:23:57;;;;;;;5.57;1.73;;;;;;;23.40;31.06;100065.84;5095400;28;20544;-80
2024/04/02 13:27:01;;;;;;;4.38;1.48;;;;;;;23.32;31.38;100077.03;5095612;28;20051;-79
2024/04/02 13:30:07;;;;;;;7.82;2.30;;;;;;;23.34;30.95;100072.16;5094603;28;20051;-78
2024/04/02 13:33:12;;;;;;;8.52;3.80;;;;;;;23.38;31.64;100069.88;5094933;28;20059;-78
2024/04/02 13:36:18;;;;;;;6.18;1.63;;;;;;;23.39;30.48;100068.78;5095082;28;20067;-78
2024/04/02 13:39:23;;;;;;;4.35;2.00;;;;;;;23.37;30.27;100066.28;5080268;28;20051;-79
2024/04/02 13:42:27;;;;;;;5.60;1.55;;;;;;;23.36;30.67;100070.06;5074489;28;20051;-79
2024/04/02 13:45:32;;;;;;;7.00;1.20;;;;;;;23.43;31.59;100073.59;5078477;28;20078;-77
2024/04/02 13:48:38;;;;;;;5.88;1.25;;;;;;;23.43;31.73;100070.84;5094140;28;20537;-80
2024/04/02 13:51:43;;;;;;;3.45;0.80;;;;;;;23.44;31.60;100075.28;5088775;28;20054;-79
2024/04/02 13:54:48;;;;;;;4.07;1.00;;;;;;;23.47;31.46;100063.88;5090515;28;20047;-80
2024/04/02 13:57:53;;;;;;;4.03;0.68;;;;;;;23.53;32.00;100064.88;5094455;28;20047;-78
2024/04/02 14:01:03;;;;;;;4.60;0.82;;;;;;;23.56;31.62;100072.63;5094731;28;20043;-79
2024/04/02 14:04:08;;;;;;;2.42;0.60;;;;;;;23.48;30.77;100072.94;5093805;28;20063;-80
2024/04/02 14:07:12;;;;;;;2.67;0.73;;;;;;;23.23;31.48;100065.50;5094784;28;20047;-80
2024/04/02 14:10:17;;;;;;;3.17;0.80;;;;;;;23.11;31.27;100080.16;5093742;28;20044;-79
2024/04/02 14:13:22;;;;;;;7.03;2.75;;;;;;;23.15;31.53;100074.03;5094695;28;20055;-80
2024/04/02 14:16:27;;;;;;;5.47;1.40;;;;;;;22.96;33.65;100080.47;5094392;28;20402;-80
2024/04/02 14:19:32;;;;;;;4.80;1.00;;;;;;;23.02;34.83;100082.34;5094203;28;20051;-79
2024/04/02 14:22:36;;;;;;;4.32;0.82;;;;;;;23.03;35.68;100075.81;5094045;28;20058;-78
2024/04/02 14:25:54;;;;;;;4.18;1.08;;;;;;;23.02;35.91;100076.00;5094148;28;20350;-79
2024/04/02 14:28:59;;;;;;;4.13;0.90;;;;;;;23.27;35.54;100071.41;5094151;28;20062;-78
2024/04/02 14:32:04;;;;;;;4.80;1.33;;;;;;;23.13;35.55;100078.03;5093895;28;20051;-78
2024/04/02 14:35:08;;;;;;;3.70;1.17;;;;;;;22.98;36.46;100075.63;5093882;28;20399;-78